Time;durP1;ratioP1;P1;durP2;ratioP2;P2;SDS_P1;SDS_P2;PMS_P1;PMS_P2;Temp;Humidity;BMP_temperature;BMP_pressure;BME280_temperature;BME280_humidity;BME280_pressure;Samples;Min_cycle;Max_cycle;Signal;HPM_P1;HPM_P2
2022/07/06 00:01:06;;;;;;;0.15;0.15;;;24.40;50.40;;;;;;6300219;28;20122;-45
2022/07/06 00:04:15;;;;;;;0.17;0.10;;;24.20;50.40;;;;;;6303603;28;20132;-47
2022/07/06 00:07:24;;;;;;;0.30;0.22;;;24.20;50.40;;;;;;6304732;28;20039;-47
2022/07/06 00:10:25;;;;;;;0.25;0.20;;;24.10;50.40;;;;;;6314722;28;20032;-43
2022/07/06 00:13:27;;;;;;;0.28;0.20;;;24.30;50.50;;;;;;6307662;28;20031;-45
2022/07/06 00:16:29;;;;;;;0.43;0.30;;;24.20;50.50;;;;;;6310920;28;20155;-46
2022/07/06 00:19:31;;;;;;;0.20;0.20;;;24.20;50.60;;;;;;6294301;28;20044;-44
2022/07/06 00:22:41;;;;;;;0.20;0.10;;;24.20;50.60;;;;;;6308650;28;20136;-44
2022/07/06 00:25:42;;;;;;;0.30;0.25;;;24.20;50.60;;;;;;6298735;28;20035;-45
2022/07/06 00:28:44;;;;;;;0.68;0.22;;;24.30;50.70;;;;;;6299153;28;20039;-45
2022/07/06 00:31:45;;;;;;;0.50;0.20;;;24.20;50.70;;;;;;6287635;28;20113;-44
2022/07/06 00:34:55;;;;;;;0.35;0.35;;;24.20;50.70;;;;;;6292676;28;20051;-44
2022/07/06 00:38:06;;;;;;;0.22;0.20;;;24.20;50.70;;;;;;6285145;28;20036;-46
2022/07/06 00:41:08;;;;;;;0.30;0.20;;;24.30;50.80;;;;;;6290859;28;20031;-44
2022/07/06 00:44:10;;;;;;;0.52;0.30;;;24.20;50.80;;;;;;6289544;28;20972;-46
2022/07/06 00:47:11;;;;;;;0.68;0.28;;;24.20;50.80;;;;;;6302015;28;20566;-48
2022/07/06 00:50:18;;;;;;;0.52;0.30;;;24.20;50.90;;;;;;6305271;28;20056;-47
2022/07/06 00:56:31;;;;;;;0.32;0.20;;;24.20;51.00;;;;;;6305875;28;20062;-45
2022/07/06 00:59:32;;;;;;;0.20;0.20;;;24.10;51.00;;;;;;6279470;28;20043;-46
2022/07/06 01:02:35;;;;;;;0.30;0.20;;;24.10;51.10;;;;;;6296249;28;20163;-46
2022/07/06 01:05:45;;;;;;;0.40;0.30;;;24.20;51.10;;;;;;6291341;28;20040;-47
2022/07/06 01:08:55;;;;;;;0.22;0.20;;;24.10;51.00;;;;;;6303746;28;20047;-43
2022/07/06 01:11:57;;;;;;;0.32;0.20;;;24.10;51.10;;;;;;6300834;28;20768;-48
2022/07/06 01:14:59;;;;;;;0.30;0.20;;;24.10;51.10;;;;;;6304604;28;20044;-48
2022/07/06 01:18:01;;;;;;;0.20;0.20;;;24.10;51.20;;;;;;6301946;28;20965;-45
2022/07/06 01:21:11;;;;;;;0.20;0.10;;;24.10;51.20;;;;;;6305066;28;20811;-44
2022/07/06 01:24:20;;;;;;;0.13;0.10;;;24.10;51.30;;;;;;6307721;28;20148;-46
2022/07/06 01:27:22;;;;;;;0.38;0.20;;;24.00;51.20;;;;;;6301590;28;20909;-45
2022/07/06 01:30:24;;;;;;;0.20;0.10;;;24.10;51.30;;;;;;6297070;28;20154;-46
2022/07/06 01:33:25;;;;;;;0.20;0.10;;;23.90;51.30;;;;;;6286916;28;20047;-44
2022/07/06 01:36:35;;;;;;;0.28;0.22;;;24.20;51.50;;;;;;6289186;28;20121;-46
2022/07/06 01:39:45;;;;;;;0.25;0.13;;;24.00;51.50;;;;;;6284311;28;20048;-43
2022/07/06 01:42:46;;;;;;;0.65;0.20;;;24.00;51.50;;;;;;6286143;28;20067;-47
2022/07/06 01:45:48;;;;;;;0.40;0.20;;;24.00;52.10;;;;;;6284664;28;20322;-46
2022/07/06 01:48:50;;;;;;;0.25;0.20;;;23.80;51.40;;;;;;6292496;28;20051;-46
2022/07/06 01:51:52;;;;;;;0.68;0.30;;;24.00;51.40;;;;;;6294678;28;20533;-44
2022/07/06 01:55:02;;;;;;;0.52;0.20;;;23.90;51.40;;;;;;6294905;28;20115;-45
2022/07/06 01:58:05;;;;;;;0.47;0.20;;;24.00;51.50;;;;;;6297560;28;20248;-45
2022/07/06 02:01:08;;;;;;;0.30;0.20;;;24.00;51.50;;;;;;6296092;28;20698;-44
2022/07/06 02:04:10;;;;;;;0.10;0.10;;;24.00;51.50;;;;;;6299069;28;20203;-46
2022/07/06 02:07:21;;;;;;;0.28;0.25;;;23.90;51.50;;;;;;6292131;28;20162;-47
2022/07/06 02:10:30;;;;;;;0.30;0.10;;;23.80;51.50;;;;;;6286913;28;20050;-47
2022/07/06 02:13:32;;;;;;;0.85;0.30;;;23.70;51.60;;;;;;6282664;28;20071;-45
2022/07/06 02:16:35;;;;;;;0.50;0.20;;;24.10;51.90;;;;;;6277639;28;20146;-46
2022/07/06 02:19:37;;;;;;;0.43;0.20;;;23.90;51.80;;;;;;6278415;28;20063;-44
2022/07/06 02:22:39;;;;;;;0.32;0.13;;;23.80;51.90;;;;;;6268801;28;20856;-43
2022/07/06 02:25:50;;;;;;;0.30;0.20;;;23.80;51.90;;;;;;6277230;28;20773;-48
2022/07/06 02:28:52;;;;;;;0.27;0.17;;;24.00;52.10;;;;;;6278307;28;20216;-48
2022/07/06 02:31:55;;;;;;;0.22;0.20;;;23.80;52.00;;;;;;6284232;28;20312;-47
2022/07/06 02:34:58;;;;;;;0.20;0.15;;;23.90;52.00;;;;;;6294053;28;20042;-47
2022/07/06 02:38:09;;;;;;;;;;;23.40;51.80;;;;;;6293000;28;20093;-44
2022/07/06 02:41:19;;;;;;;0.30;0.20;;;23.80;52.00;;;;;;6288020;28;19928;-44
2022/07/06 02:44:21;;;;;;;0.75;0.32;;;23.90;52.00;;;;;;6288732;28;20341;-47
2022/07/06 02:47:23;;;;;;;0.20;0.20;;;23.70;51.80;;;;;;6287890;28;20539;-44
2022/07/06 02:50:25;;;;;;;0.40;0.30;;;23.70;52.00;;;;;;6270320;28;20449;-45
2022/07/06 02:53:29;;;;;;;0.15;0.10;;;23.40;51.70;;;;;;6272351;28;20659;-45
2022/07/06 02:56:40;;;;;;;0.85;0.25;;;23.90;52.00;;;;;;6285060;28;20528;-47
2022/07/06 02:59:43;;;;;;;0.30;0.20;;;24.00;52.10;;;;;;6284938;28;20413;-47
2022/07/06 03:02:45;;;;;;;0.47;0.20;;;23.80;52.00;;;;;;6285461;28;20339;-46
2022/07/06 03:05:48;;;;;;;0.45;0.20;;;23.80;52.10;;;;;;6286613;28;20361;-47
2022/07/06 03:09:00;;;;;;;;;;;23.60;51.90;;;;;;6287192;28;20047;-44
2022/07/06 03:12:10;;;;;;;0.35;0.20;;;24.50;52.40;;;;;;6290556;28;19930;-44
2022/07/06 03:15:12;;;;;;;0.40;0.20;;;23.80;52.00;;;;;;6281072;28;20039;-47
2022/07/06 03:18:16;;;;;;;0.35;0.20;;;23.70;52.10;;;;;;6289526;28;20067;-47
2022/07/06 03:21:18;;;;;;;0.20;0.10;;;23.80;52.10;;;;;;6289423;28;20055;-46
2022/07/06 03:24:21;;;;;;;0.25;0.20;;;23.80;52.00;;;;;;6296974;28;20047;-47
2022/07/06 03:27:31;;;;;;;0.10;0.10;;;23.80;52.10;;;;;;6284495;28;20138;-47
2022/07/06 03:30:34;;;;;;;0.52;0.20;;;23.80;52.10;;;;;;6279597;28;20032;-48
2022/07/06 03:33:35;;;;;;;1.05;0.30;;;23.70;52.10;;;;;;6283038;28;20047;-45
2022/07/06 03:36:38;;;;;;;0.47;0.13;;;23.80;52.30;;;;;;6285822;28;20048;-47
2022/07/06 03:39:49;;;;;;;;;;;23.80;52.20;;;;;;6281784;28;20116;-48
2022/07/06 03:42:58;;;;;;;0.77;0.30;;;23.80;52.20;;;;;;6281628;28;19937;-48
2022/07/06 03:46:02;;;;;;;2.38;0.40;;;23.90;52.30;;;;;;6278337;28;20155;-45
2022/07/06 03:49:04;;;;;;;0.93;0.40;;;23.80;52.20;;;;;;6289666;28;20362;-44
2022/07/06 03:52:06;;;;;;;1.10;0.45;;;23.80;52.30;;;;;;6286442;28;20043;-46
2022/07/06 03:55:16;;;;;;;1.17;0.50;;;23.90;52.40;;;;;;6292606;28;20036;-44
2022/07/06 04:01:32;;;;;;;1.60;0.40;;;23.70;52.30;;;;;;6283702;28;20163;-45
2022/07/06 04:04:35;;;;;;;1.40;0.30;;;23.80;52.40;;;;;;6272391;28;20050;-48
2022/07/06 04:07:37;;;;;;;0.50;0.30;;;23.80;52.40;;;;;;6282289;28;20724;-45
2022/07/06 04:10:46;;;;;;;0.30;0.20;;;23.80;52.40;;;;;;6281683;28;22151;-48
2022/07/06 04:13:56;;;;;;;0.80;0.30;;;23.80;52.50;;;;;;6282162;28;20147;-44
2022/07/06 04:17:51;;;;;;;0.20;0.20;;;23.80;52.40;;;;;;6277051;28;20055;-44
2022/07/06 04:20:21;;;;;;;;;;;24.00;52.50;;;;;;6253158;28;20032;-48
2022/07/06 04:23:23;;;;;;;0.25;0.20;;;23.60;52.30;;;;;;6258599;28;20631;-48
2022/07/06 04:26:27;;;;;;;0.17;0.10;;;23.80;52.40;;;;;;6265216;28;20058;-45
2022/07/06 04:29:37;;;;;;;1.45;0.38;;;23.70;52.40;;;;;;6278820;28;20582;-48
2022/07/06 04:32:39;;;;;;;1.55;0.22;;;23.70;52.40;;;;;;6281798;28;20043;-47
2022/07/06 04:35:41;;;;;;;0.43;0.20;;;23.70;52.40;;;;;;6261787;28;20469;-47
2022/07/06 04:38:43;;;;;;;0.50;0.30;;;23.70;52.50;;;;;;6278256;28;20727;-44
2022/07/06 04:41:52;;;;;;;0.68;0.22;;;23.70;52.50;;;;;;6279355;28;20624;-44
2022/07/06 04:45:04;;;;;;;0.40;0.20;;;23.80;52.60;;;;;;6279580;28;20147;-47
2022/07/06 04:48:08;;;;;;;0.47;0.20;;;23.70;52.60;;;;;;6283262;28;20506;-47
2022/07/06 04:51:11;;;;;;;0.32;0.28;;;23.80;52.70;;;;;;6280096;28;20211;-46
2022/07/06 04:54:12;;;;;;;0.52;0.38;;;23.70;52.70;;;;;;6282041;28;20079;-46
2022/07/06 04:57:15;;;;;;;0.85;0.30;;;23.70;52.70;;;;;;6273184;28;20059;-46
2022/07/06 05:00:26;;;;;;;0.32;0.20;;;23.70;52.70;;;;;;6273439;28;20375;-47
2022/07/06 05:03:28;;;;;;;0.97;0.30;;;23.70;52.80;;;;;;6267896;28;20920;-44
2022/07/06 05:06:30;;;;;;;0.20;0.20;;;23.80;52.80;;;;;;6278276;28;20064;-48
2022/07/06 05:09:39;;;;;;;0.40;0.38;;;23.70;52.80;;;;;;6280139;28;20059;-49
2022/07/06 05:12:55;;;;;;;0.65;0.20;;;23.80;53.10;;;;;;6260574;28;20218;-46
2022/07/06 05:15:57;;;;;;;0.50;0.30;;;23.70;53.00;;;;;;6281048;28;20039;-48
2022/07/06 05:18:59;;;;;;;0.28;0.20;;;23.80;53.00;;;;;;6289954;28;20044;-45
2022/07/06 05:22:10;;;;;;;0.40;0.35;;;23.80;53.00;;;;;;6281030;28;20865;-47
2022/07/06 05:25:12;;;;;;;1.15;0.50;;;23.70;53.00;;;;;;6280066;28;20060;-46
2022/07/06 05:28:15;;;;;;;0.50;0.30;;;23.70;53.00;;;;;;6279965;28;20710;-45
2022/07/06 05:31:25;;;;;;;0.73;0.40;;;23.90;53.10;;;;;;6264813;28;20211;-47
2022/07/06 05:34:27;;;;;;;0.50;0.30;;;23.70;53.10;;;;;;6270115;28;20494;-45
2022/07/06 05:37:28;;;;;;;0.73;0.30;;;23.70;53.10;;;;;;6268294;28;20276;-47
2022/07/06 05:40:30;;;;;;;0.47;0.30;;;23.80;53.20;;;;;;6274167;28;20051;-47
2022/07/06 05:43:40;;;;;;;0.55;0.40;;;23.80;53.20;;;;;;6276625;28;20047;-46
2022/07/06 05:46:42;;;;;;;0.32;0.30;;;23.70;53.20;;;;;;6287178;28;20044;-46
2022/07/06 05:53:09;;;;;;;0.30;0.20;;;23.70;53.30;;;;;;6277164;28;20054;-45
2022/07/06 05:56:21;;;;;;;0.47;0.28;;;23.80;53.40;;;;;;6274144;28;20376;-44
2022/07/06 05:59:23;;;;;;;1.20;0.40;;;23.80;53.40;;;;;;6280080;28;20166;-45
2022/07/06 06:02:34;;;;;;;0.32;0.30;;;23.80;53.50;;;;;;6277074;28;20047;-47
2022/07/06 06:05:36;;;;;;;0.30;0.20;;;23.80;53.50;;;;;;6281456;28;20044;-43
2022/07/06 06:08:41;;;;;;;0.28;0.28;;;23.80;53.50;;;;;;6261041;28;20051;-49
2022/07/06 06:11:43;;;;;;;0.30;0.20;;;23.80;53.50;;;;;;6263364;28;20054;-45
2022/07/06 06:14:53;;;;;;;0.20;0.20;;;23.60;54.10;;;;;;6277495;28;20039;-43
2022/07/06 06:17:55;;;;;;;0.30;0.30;;;23.80;53.60;;;;;;6270209;28;21050;-47
2022/07/06 06:20:56;;;;;;;0.20;0.20;;;23.70;53.60;;;;;;6268848;28;20052;-46
2022/07/06 06:24:05;;;;;;;0.10;0.10;;;23.80;53.70;;;;;;6272940;28;20935;-44
2022/07/06 06:27:07;;;;;;;0.40;0.30;;;23.80;53.80;;;;;;6262317;28;20204;-46
2022/07/06 06:30:10;;;;;;;0.40;0.22;;;23.90;54.00;;;;;;6255617;28;20036;-44
2022/07/06 06:33:21;;;;;;;1.10;0.68;;;23.80;54.00;;;;;;6257478;28;20147;-44
2022/07/06 06:36:23;;;;;;;0.70;0.40;;;23.80;54.20;;;;;;6216551;28;20044;-44
2022/07/06 06:39:24;;;;;;;1.42;0.40;;;23.80;54.50;;;;;;6232212;28;20181;-44
2022/07/06 06:42:26;;;;;;;1.02;0.50;;;23.80;54.80;;;;;;6219863;28;20046;-47
2022/07/06 06:45:35;;;;;;;2.53;0.90;;;23.80;55.00;;;;;;6223871;28;20050;-46
2022/07/06 06:48:37;;;;;;;1.70;0.45;;;23.70;55.20;;;;;;6211875;28;20048;-43
2022/07/06 06:51:39;;;;;;;0.82;0.50;;;23.80;55.40;;;;;;6215993;28;20146;-46
2022/07/06 06:54:41;;;;;;;1.52;0.60;;;23.70;55.50;;;;;;6206149;28;20044;-44
2022/07/06 06:57:43;;;;;;;1.35;0.50;;;23.70;55.50;;;;;;6194003;28;20040;-48
2022/07/06 07:00:51;;;;;;;1.20;0.47;;;24.00;55.60;;;;;;6203354;28;20179;-43
2022/07/06 07:04:00;;;;;;;1.50;0.40;;;23.80;55.50;;;;;;6177139;28;20094;-44
2022/07/06 07:07:02;;;;;;;0.95;0.30;;;23.90;55.50;;;;;;6168095;28;20051;-44
2022/07/06 07:10:05;;;;;;;1.00;0.38;;;23.90;55.40;;;;;;6170186;28;20933;-48
2022/07/06 07:13:07;;;;;;;1.33;0.25;;;24.00;55.40;;;;;;6159889;28;20044;-46
2022/07/06 07:16:17;;;;;;;1.33;0.40;;;24.00;55.40;;;;;;6153316;28;20126;-49
2022/07/06 07:19:19;;;;;;;1.10;0.30;;;24.00;55.50;;;;;;6134068;27;21821;-45
2022/07/06 07:22:20;;;;;;;0.82;0.40;;;24.00;55.40;;;;;;6148901;28;20071;-44
2022/07/06 07:25:22;;;;;;;0.75;0.30;;;24.10;55.40;;;;;;6164048;28;20048;-46
2022/07/06 07:28:24;;;;;;;1.17;0.20;;;24.10;55.40;;;;;;6140808;28;20059;-46
2022/07/06 07:31:34;;;;;;;1.90;0.50;;;24.10;55.50;;;;;;6146103;28;20047;-44
2022/07/06 07:34:42;;;;;;;1.00;0.35;;;23.80;55.40;;;;;;6123222;28;20137;-43
2022/07/06 07:37:44;;;;;;;2.65;0.30;;;24.00;55.50;;;;;;6140514;28;20214;-44
2022/07/06 07:40:46;;;;;;;0.80;0.30;;;24.00;55.40;;;;;;6110196;28;20154;-44
2022/07/06 07:43:48;;;;;;;0.52;0.30;;;24.20;55.60;;;;;;6135396;28;20056;-43
2022/07/06 07:46:56;;;;;;;1.70;0.25;;;24.30;55.60;;;;;;6100966;28;20050;-43
2022/07/06 07:49:57;;;;;;;0.50;0.30;;;24.30;55.50;;;;;;6115934;28;20047;-43
2022/07/06 07:52:59;;;;;;;0.40;0.20;;;24.40;55.50;;;;;;6124688;28;20048;-44
2022/07/06 07:56:01;;;;;;;1.42;0.45;;;24.50;55.50;;;;;;6148331;28;20121;-45
2022/07/06 07:59:02;;;;;;;0.88;0.20;;;24.30;55.40;;;;;;6139604;27;20072;-45
2022/07/06 08:02:07;;;;;;;3.58;0.77;;;24.30;55.30;;;;;;6136071;28;20093;-45
2022/07/06 08:08:23;;;;;;;3.45;1.27;;;24.30;55.20;;;;;;6126021;28;20133;-43
2022/07/06 08:11:25;;;;;;;1.90;0.60;;;24.30;55.10;;;;;;6134009;28;20036;-43
2022/07/06 08:14:27;;;;;;;3.42;1.00;;;24.30;55.10;;;;;;6133252;28;20048;-46
2022/07/06 08:17:36;;;;;;;2.50;0.88;;;24.20;54.90;;;;;;6124798;28;20055;-44
2022/07/06 08:20:38;;;;;;;3.65;1.10;;;24.30;54.70;;;;;;6153466;27;20037;-47
2022/07/06 08:24:00;;;;;;;;;;;24.20;54.50;;;;;;6104530;28;20051;-43
2022/07/06 08:27:03;;;;;;;3.20;0.90;;;24.20;54.50;;;;;;6131925;28;20835;-45
2022/07/06 08:30:05;;;;;;;2.40;1.15;;;24.30;55.00;;;;;;6102586;28;20062;-42
2022/07/06 08:33:08;;;;;;;3.97;1.00;;;24.20;54.20;;;;;;6136916;28;22187;-44
2022/07/06 08:36:17;;;;;;;2.80;1.10;;;24.20;54.00;;;;;;6130382;28;20047;-45
2022/07/06 08:39:24;;;;;;;3.75;1.35;;;24.20;53.70;;;;;;6152176;27;20079;-47
2022/07/06 08:42:30;;;;;;;4.43;1.45;;;24.20;53.50;;;;;;6140323;28;20133;-44
2022/07/06 08:45:34;;;;;;;3.92;1.00;;;24.20;53.40;;;;;;6128962;28;20047;-43
2022/07/06 08:48:42;;;;;;;3.47;1.10;;;24.20;53.40;;;;;;6131835;28;20115;-44
2022/07/06 08:51:45;;;;;;;3.95;1.23;;;24.30;53.30;;;;;;6134767;28;20039;-43
2022/07/06 08:54:47;;;;;;;2.85;1.00;;;24.30;53.00;;;;;;6137513;28;23353;-43
2022/07/06 08:57:49;;;;;;;3.80;1.40;;;24.30;52.80;;;;;;6143769;28;20047;-43
2022/07/06 09:00:51;;;;;;;4.05;0.90;;;24.30;52.80;;;;;;6113322;28;20043;-46
2022/07/06 09:03:55;;;;;;;2.72;0.85;;;24.30;52.70;;;;;;6116655;28;20420;-44
2022/07/06 09:07:02;;;;;;;2.28;0.80;;;24.50;52.70;;;;;;6122747;28;20121;-44
2022/07/06 09:10:12;;;;;;;3.17;1.10;;;24.40;52.60;;;;;;6151736;28;20134;-45
2022/07/06 09:13:14;;;;;;;1.85;0.90;;;24.40;52.00;;;;;;6141661;28;20116;-43
2022/07/06 09:16:17;;;;;;;2.63;0.85;;;24.40;51.80;;;;;;6122248;28;20056;-47
2022/07/06 09:19:46;;;;;;;3.45;1.30;;;24.50;51.70;;;;;;6144910;28;20051;-43
2022/07/06 09:22:59;;;;;;;1.77;1.10;;;24.50;51.40;;;;;;6142890;28;20040;-46
2022/07/06 09:26:03;;;;;;;2.38;0.80;;;24.50;50.80;;;;;;6129613;28;20052;-44
2022/07/06 09:29:05;;;;;;;1.83;0.90;;;24.50;50.70;;;;;;6128538;28;20799;-43
2022/07/06 09:32:07;;;;;;;3.28;1.00;;;24.60;50.60;;;;;;6120710;28;20051;-44
2022/07/06 09:35:20;;;;;;;2.15;1.13;;;24.50;50.30;;;;;;6148560;28;21684;-44
2022/07/06 09:38:34;;;;;;;3.95;0.90;;;24.50;49.80;;;;;;6118039;28;20101;-44
2022/07/06 09:41:42;;;;;;;2.83;1.08;;;24.60;49.70;;;;;;6110766;28;20155;-43
2022/07/06 09:44:44;;;;;;;3.25;1.13;;;24.60;49.40;;;;;;6116267;28;20158;-46
2022/07/06 09:47:47;;;;;;;2.05;0.70;;;24.50;49.20;;;;;;6113615;28;20052;-45
2022/07/06 09:50:57;;;;;;;1.98;0.95;;;24.60;49.00;;;;;;6143284;28;21366;-44
2022/07/06 09:53:59;;;;;;;2.08;0.70;;;24.60;48.90;;;;;;6139801;28;20040;-44
2022/07/06 09:57:01;;;;;;;3.05;0.88;;;24.60;48.90;;;;;;6145117;28;20299;-45
2022/07/06 10:00:11;;;;;;;1.70;0.63;;;24.60;48.90;;;;;;6118764;28;21354;-44
2022/07/06 10:03:15;;;;;;;2.95;0.98;;;24.70;49.00;;;;;;6120377;28;21730;-44
2022/07/06 10:06:17;;;;;;;1.70;0.60;;;24.70;48.90;;;;;;6114715;28;20166;-44
2022/07/06 10:09:27;;;;;;;0.73;0.68;;;24.70;48.80;;;;;;6128358;28;20097;-45
2022/07/06 10:12:37;;;;;;;1.45;0.70;;;24.70;48.70;;;;;;6109600;28;20048;-46
2022/07/06 10:15:40;;;;;;;0.88;0.50;;;24.70;48.60;;;;;;6148517;28;20052;-43
2022/07/06 10:18:43;;;;;;;2.00;0.65;;;24.70;48.60;;;;;;6117772;28;20052;-45
2022/07/06 10:21:53;;;;;;;1.25;0.52;;;24.70;48.50;;;;;;6128185;28;20309;-43
2022/07/06 10:24:57;;;;;;;1.83;0.57;;;24.70;48.40;;;;;;6151461;28;20147;-45
2022/07/06 10:28:00;;;;;;;0.77;0.40;;;24.70;48.40;;;;;;6177028;28;20154;-45
2022/07/06 10:31:03;;;;;;;1.00;0.60;;;24.70;48.30;;;;;;6120096;28;20043;-45
2022/07/06 10:34:09;;;;;;;1.00;0.52;;;24.70;48.30;;;;;;6126443;28;20053;-44
2022/07/06 10:37:23;;;;;;;0.60;0.50;;;24.70;48.20;;;;;;6145985;28;20040;-46
2022/07/06 10:44:00;;;;;;;1.08;0.70;;;24.70;47.90;;;;;;6158552;28;21301;-44
2022/07/06 10:47:02;;;;;;;0.82;0.60;;;24.70;47.80;;;;;;6157283;28;21618;-45
2022/07/06 10:50:05;;;;;;;0.98;0.63;;;24.50;47.60;;;;;;6198832;28;20044;-43
2022/07/06 10:53:15;;;;;;;1.42;0.40;;;24.70;47.60;;;;;;6206150;28;20035;-44
2022/07/06 10:56:16;;;;;;;1.80;0.50;;;24.80;47.70;;;;;;6197874;28;20062;-43
2022/07/06 10:59:20;;;;;;;0.98;0.40;;;24.70;47.60;;;;;;6214210;28;20102;-46
2022/07/06 11:02:23;;;;;;;0.50;0.47;;;24.70;47.50;;;;;;6186903;28;20042;-44
2022/07/06 11:05:39;;;;;;;1.00;0.40;;;24.70;47.50;;;;;;6211741;28;20044;-44
2022/07/06 11:09:03;;;;;;;0.35;0.28;;;24.70;47.40;;;;;;6157233;28;20387;-45
2022/07/06 11:12:16;;;;;;;1.05;0.40;;;24.60;47.30;;;;;;6208264;28;20998;-44
2022/07/06 11:15:48;;;;;;;0.80;0.50;;;24.70;47.20;;;;;;6179897;28;20040;-46
2022/07/06 11:19:00;;;;;;;0.50;0.40;;;24.60;47.00;;;;;;6190533;28;20051;-44
2022/07/06 11:22:12;;;;;;;0.60;0.40;;;24.30;46.80;;;;;;6188304;28;21067;-44
2022/07/06 11:25:21;;;;;;;0.50;0.50;;;24.60;46.90;;;;;;6187131;28;20052;-46
2022/07/06 11:28:25;;;;;;;2.17;0.70;;;24.60;46.90;;;;;;6203510;28;20058;-44
2022/07/06 11:31:27;;;;;;;1.75;0.50;;;24.60;46.90;;;;;;6188344;28;20053;-42
2022/07/06 11:34:30;;;;;;;0.82;0.60;;;24.60;46.90;;;;;;6195994;28;20036;-45
2022/07/06 11:37:32;;;;;;;0.80;0.40;;;24.50;46.90;;;;;;6170761;28;21542;-44
2022/07/06 11:40:38;;;;;;;0.88;0.40;;;24.60;47.00;;;;;;6160988;28;20055;-44
2022/07/06 11:43:43;;;;;;;1.38;0.50;;;24.60;47.00;;;;;;6147461;28;20051;-43
2022/07/06 11:46:56;;;;;;;0.47;0.43;;;24.60;47.10;;;;;;6167326;28;21805;-47
2022/07/06 11:49:57;;;;;;;1.75;0.40;;;24.60;47.10;;;;;;6181652;28;20787;-45
2022/07/06 11:52:59;;;;;;;1.20;0.50;;;24.70;47.20;;;;;;6166448;27;20082;-44
2022/07/06 11:56:10;;;;;;;1.65;0.35;;;24.60;47.10;;;;;;6167752;28;20158;-43
2022/07/06 11:59:22;;;;;;;0.77;0.30;;;24.60;47.10;;;;;;6140993;28;20161;-44
2022/07/06 12:02:24;;;;;;;0.70;0.30;;;24.60;47.20;;;;;;6098494;28;20577;-43
2022/07/06 12:05:30;;;;;;;0.98;0.30;;;24.60;47.20;;;;;;6068684;28;20032;-44
2022/07/06 12:08:34;;;;;;;1.20;0.40;;;24.50;47.10;;;;;;6109753;28;20536;-44
2022/07/06 12:11:39;;;;;;;1.45;0.40;;;24.60;47.10;;;;;;6077229;28;20051;-44
2022/07/06 12:14:42;;;;;;;0.50;0.30;;;24.60;47.00;;;;;;6127613;28;20035;-45
2022/07/06 12:17:55;;;;;;;1.20;0.70;;;24.70;47.00;;;;;;6125360;28;20118;-45
2022/07/06 12:20:57;;;;;;;1.25;0.50;;;24.60;47.10;;;;;;6109281;28;21892;-44
2022/07/06 12:24:08;;;;;;;1.75;0.70;;;24.60;47.00;;;;;;6118567;28;20120;-44
2022/07/06 12:27:20;;;;;;;0.82;0.38;;;24.70;47.20;;;;;;6131613;28;20055;-43
2022/07/06 12:30:21;;;;;;;2.28;0.47;;;24.70;47.20;;;;;;6052592;28;20051;-43
2022/07/06 12:33:27;;;;;;;1.27;0.30;;;24.70;47.30;;;;;;6094034;28;20094;-46
2022/07/06 12:36:29;;;;;;;0.20;0.20;;;24.50;47.20;;;;;;6106974;28;21031;-44
2022/07/06 12:39:31;;;;;;;0.40;0.38;;;24.70;47.20;;;;;;6112684;28;20044;-45
2022/07/06 12:42:33;;;;;;;1.38;0.20;;;24.70;47.20;;;;;;6129267;28;20082;-47
2022/07/06 12:45:35;;;;;;;1.08;0.30;;;24.70;47.10;;;;;;6086260;28;20072;-44
2022/07/06 12:48:59;;;;;;;0.68;0.20;;;24.60;47.10;;;;;;6124022;28;20044;-44
2022/07/06 12:52:11;;;;;;;0.60;0.28;;;24.70;46.90;;;;;;6140514;28;21209;-45
2022/07/06 12:55:15;;;;;;;1.30;0.30;;;24.60;47.00;;;;;;6135384;28;20150;-45
2022/07/06 12:58:22;;;;;;;0.55;0.30;;;24.70;47.10;;;;;;6126930;28;21694;-44
2022/07/06 13:01:29;;;;;;;0.93;0.35;;;24.60;46.90;;;;;;6124636;28;20162;-44
2022/07/06 13:04:32;;;;;;;0.75;0.45;;;24.60;46.90;;;;;;6108354;28;22152;-44
2022/07/06 13:07:35;;;;;;;3.28;0.60;;;24.70;47.10;;;;;;6075393;28;20036;-44
2022/07/06 13:10:38;;;;;;;0.40;0.30;;;24.70;47.20;;;;;;6126424;28;20057;-45
2022/07/06 13:13:44;;;;;;;1.98;0.40;;;24.70;47.30;;;;;;6135947;28;22265;-45
2022/07/06 13:16:47;;;;;;;1.25;0.38;;;24.70;47.40;;;;;;6127524;28;20129;-45
2022/07/06 13:19:56;;;;;;;1.02;0.32;;;24.80;47.70;;;;;;6121711;28;21435;-43
2022/07/06 13:22:58;;;;;;;0.75;0.30;;;24.70;47.70;;;;;;6118048;28;20990;-46
2022/07/06 13:26:00;;;;;;;1.10;0.52;;;24.80;47.80;;;;;;6104351;28;20048;-46
2022/07/06 13:29:10;;;;;;;1.95;0.60;;;24.70;47.70;;;;;;6112731;28;20191;-48
2022/07/06 13:32:12;;;;;;;0.45;0.30;;;24.70;47.70;;;;;;6134257;28;21209;-44
2022/07/06 13:35:14;;;;;;;0.85;0.38;;;24.70;47.70;;;;;;6125120;28;20080;-45
2022/07/06 13:38:21;;;;;;;0.50;0.30;;;24.80;47.80;;;;;;6143333;28;21684;-45
2022/07/06 13:41:23;;;;;;;0.47;0.30;;;24.80;48.00;;;;;;6110576;28;22935;-45
2022/07/06 13:44:25;;;;;;;0.55;0.40;;;24.70;48.60;;;;;;6115427;28;20082;-44
2022/07/06 13:47:27;;;;;;;1.77;0.50;;;24.80;48.60;;;;;;6116387;28;20047;-45
2022/07/06 13:50:35;;;;;;;1.77;0.32;;;24.70;48.30;;;;;;6121333;28;20064;-46
2022/07/06 13:53:38;;;;;;;1.23;0.50;;;24.80;48.40;;;;;;6115696;28;20082;-44
2022/07/06 13:56:40;;;;;;;0.68;0.40;;;24.80;48.40;;;;;;6134752;28;20162;-44
2022/07/06 13:59:48;;;;;;;1.02;0.60;;;24.70;48.40;;;;;;6145228;28;20893;-45
2022/07/06 14:02:50;;;;;;;0.88;0.40;;;24.70;48.40;;;;;;6116596;28;20051;-46
2022/07/06 14:05:52;;;;;;;0.82;0.28;;;24.80;48.60;;;;;;6113604;28;20051;-44
2022/07/06 14:08:53;;;;;;;0.55;0.38;;;24.70;48.50;;;;;;6142821;28;22485;-47
2022/07/06 14:11:55;;;;;;;1.65;0.17;;;24.80;48.60;;;;;;6130273;28;21497;-46
2022/07/06 14:15:05;;;;;;;0.35;0.28;;;24.80;48.70;;;;;;6140905;28;20040;-49
2022/07/06 14:18:07;;;;;;;0.50;0.35;;;24.80;48.70;;;;;;6126217;28;23290;-44
2022/07/06 14:21:16;;;;;;;1.27;0.32;;;24.80;48.60;;;;;;6137146;28;20076;-45
2022/07/06 14:24:26;;;;;;;0.70;0.40;;;24.90;48.60;;;;;;6110383;28;20058;-46
2022/07/06 14:27:33;;;;;;;0.60;0.20;;;24.80;48.70;;;;;;6135873;28;20043;-45
2022/07/06 14:30:43;;;;;;;0.70;0.35;;;24.70;48.60;;;;;;6119818;28;21168;-44
2022/07/06 14:33:46;;;;;;;0.47;0.32;;;24.90;48.70;;;;;;6101183;27;20055;-44
2022/07/06 14:36:47;;;;;;;0.93;0.40;;;24.80;48.70;;;;;;6097715;28;20055;-43
2022/07/06 14:39:50;;;;;;;0.40;0.20;;;24.70;48.70;;;;;;6092434;28;20036;-43
2022/07/06 14:42:51;;;;;;;1.63;0.40;;;24.90;48.90;;;;;;6087104;28;20043;-46
2022/07/06 14:46:00;;;;;;;1.08;0.40;;;24.90;48.80;;;;;;6104801;28;21254;-45
2022/07/06 14:49:02;;;;;;;0.75;0.30;;;24.90;48.70;;;;;;6085197;28;20098;-48
2022/07/06 14:52:10;;;;;;;1.38;0.40;;;24.90;48.70;;;;;;6109270;28;21093;-43
2022/07/06 14:55:13;;;;;;;0.60;0.40;;;24.90;48.70;;;;;;6126272;28;22747;-44
2022/07/06 14:58:17;;;;;;;0.60;0.30;;;24.90;48.70;;;;;;6113523;28;20044;-43
2022/07/06 15:01:28;;;;;;;0.50;0.30;;;24.90;49.00;;;;;;6109966;28;20618;-44
2022/07/06 15:04:30;;;;;;;0.40;0.20;;;24.90;48.90;;;;;;6102174;28;20134;-44
2022/07/06 15:07:32;;;;;;;2.70;0.40;;;24.80;48.90;;;;;;6092742;28;20055;-46
2022/07/06 15:10:34;;;;;;;1.48;0.30;;;24.90;48.90;;;;;;6081566;28;20052;-48
2022/07/06 15:13:35;;;;;;;1.00;0.30;;;24.90;48.70;;;;;;6134839;28;20054;-45
2022/07/06 15:16:46;;;;;;;0.40;0.30;;;25.00;48.70;;;;;;6100313;28;20048;-47
2022/07/06 15:19:48;;;;;;;0.20;0.20;;;25.00;48.70;;;;;;6113344;28;22753;-44
2022/07/06 15:23:03;;;;;;;0.70;0.40;;;25.00;48.60;;;;;;6123218;28;20166;-43
2022/07/06 15:26:05;;;;;;;0.95;0.40;;;25.00;48.70;;;;;;6120315;28;20107;-46
2022/07/06 15:29:06;;;;;;;0.40;0.30;;;25.00;49.40;;;;;;6147551;27;20166;-46
2022/07/06 15:32:17;;;;;;;1.60;0.30;;;25.00;48.80;;;;;;6153868;28;20119;-45
2022/07/06 15:35:18;;;;;;;1.25;0.32;;;25.00;48.90;;;;;;6150960;28;21425;-47
2022/07/06 15:38:20;;;;;;;0.40;0.22;;;25.00;48.90;;;;;;6163574;28;20167;-44
2022/07/06 15:41:22;;;;;;;0.35;0.20;;;25.10;48.90;;;;;;6152297;28;20035;-50
2022/07/06 15:44:23;;;;;;;0.82;0.22;;;25.10;48.80;;;;;;6161211;28;20182;-49
2022/07/06 15:47:33;;;;;;;0.68;0.40;;;25.10;48.70;;;;;;6166837;27;20080;-45
2022/07/06 15:50:35;;;;;;;1.98;0.30;;;25.10;48.60;;;;;;6165145;28;20114;-43
2022/07/06 15:53:46;;;;;;;1.95;0.68;;;25.10;48.60;;;;;;6143806;28;21073;-47
2022/07/06 15:56:47;;;;;;;1.27;0.30;;;25.10;48.60;;;;;;6161600;28;20047;-45
2022/07/06 15:59:49;;;;;;;1.38;0.30;;;25.30;49.30;;;;;;6154383;28;20044;-45
2022/07/06 16:02:59;;;;;;;0.35;0.30;;;25.10;48.40;;;;;;6156013;28;20152;-44
2022/07/06 16:06:01;;;;;;;1.23;0.20;;;25.10;48.30;;;;;;6167042;28;20039;-43
2022/07/06 16:09:12;;;;;;;0.35;0.20;;;25.10;48.30;;;;;;6170058;28;21602;-47
2022/07/06 16:12:13;;;;;;;0.40;0.22;;;25.10;48.20;;;;;;6187041;28;20048;-44
2022/07/06 16:15:15;;;;;;;0.50;0.32;;;25.10;48.10;;;;;;6170829;28;20047;-46
2022/07/06 16:18:25;;;;;;;1.05;0.20;;;25.20;48.40;;;;;;6202650;28;20052;-44
2022/07/06 16:21:28;;;;;;;0.32;0.28;;;25.20;48.10;;;;;;6186601;28;20048;-48